createdAt,value
2018-03-26T16:51:11.785Z,7.85
2018-03-26T16:53:39.424Z,8.11
2018-03-26T16:56:07.040Z,8.23
2018-03-26T16:58:34.685Z,8.34
2018-03-26T17:01:02.424Z,8.27
2018-03-26T17:03:30.101Z,8.45
2018-03-26T17:05:57.708Z,8.39
2018-03-26T17:08:25.296Z,8.32
2018-03-26T17:10:52.979Z,8.42
2018-03-26T17:13:20.547Z,8.34
2018-03-26T17:15:48.168Z,8.30
2018-03-26T17:18:15.811Z,8.32
2018-03-26T17:20:43.400Z,8.43
2018-03-26T17:23:10.987Z,8.49
2018-03-26T17:25:38.644Z,8.41
2018-03-26T17:28:06.271Z,8.41
2018-03-26T17:30:33.883Z,8.54
2018-03-26T17:33:01.477Z,8.52
2018-03-26T17:35:29.075Z,8.42
2018-03-26T17:37:56.700Z,8.43
2018-03-26T17:40:24.320Z,8.33
2018-03-26T17:42:51.957Z,8.34
2018-03-26T17:45:19.551Z,8.30
2018-03-26T17:47:47.168Z,8.34
2018-03-26T17:50:14.840Z,8.65
2018-03-26T17:52:42.430Z,8.59
2018-03-26T17:55:10.044Z,8.58
2018-03-26T17:57:37.662Z,8.52
2018-03-26T18:00:05.316Z,8.37
2018-03-26T18:02:32.915Z,8.26
2018-03-26T18:05:00.513Z,8.23
2018-03-26T18:07:28.178Z,8.42
2018-03-26T18:09:55.759Z,8.24
2018-03-26T18:12:23.351Z,8.45
2018-03-26T18:14:50.978Z,8.48
2018-03-26T18:17:18.607Z,8.49
2018-03-26T18:19:46.239Z,8.58
2018-03-26T18:22:13.859Z,8.46
2018-03-26T18:24:41.472Z,8.39
2018-03-26T18:27:09.074Z,8.36
2018-03-26T18:29:36.671Z,8.29
2018-03-26T18:32:04.272Z,8.50
2018-03-26T18:34:31.911Z,8.36
2018-03-26T18:36:59.509Z,8.53
2018-03-26T18:39:27.139Z,8.49
2018-03-26T18:41:54.791Z,8.36
2018-03-26T18:44:22.415Z,8.57
2018-03-26T18:46:50.042Z,8.61
2018-03-26T18:49:17.639Z,8.31
2018-03-26T18:51:45.303Z,8.25
2018-03-26T18:54:12.928Z,8.41
2018-03-26T18:56:40.547Z,8.19
2018-03-26T18:59:08.168Z,8.35
2018-03-26T19:01:35.810Z,8.28
2018-03-26T19:04:03.422Z,8.43
2018-03-26T19:06:31.043Z,8.43
2018-03-26T19:08:58.680Z,8.56
2018-03-26T19:11:26.311Z,8.53
2018-03-26T19:13:53.891Z,8.22
2018-03-26T19:16:21.511Z,8.32
2018-03-26T19:18:49.194Z,8.39
2018-03-26T19:21:16.788Z,8.34
2018-03-26T19:23:44.390Z,8.40
2018-03-26T19:26:12.012Z,8.50
2018-03-26T19:28:39.651Z,8.42
2018-03-26T19:31:07.251Z,8.45
2018-03-26T19:33:34.836Z,8.40
2018-03-26T19:36:02.515Z,8.41
2018-03-26T19:38:30.175Z,8.47
2018-03-26T19:40:57.774Z,8.58
2018-03-26T19:43:25.404Z,8.48
2018-03-26T19:45:53.003Z,8.54
2018-03-26T19:48:20.626Z,8.42
2018-03-26T19:50:49.099Z,8.43
2018-03-26T19:53:16.699Z,8.58
2018-03-26T19:55:44.288Z,8.55
2018-03-26T19:58:12.012Z,8.57
2018-03-26T20:00:39.608Z,8.58
2018-03-26T20:03:07.255Z,8.58
2018-03-26T20:05:34.943Z,8.50
2018-03-26T20:08:02.617Z,8.71
2018-03-26T20:10:30.203Z,8.62
2018-03-26T20:12:57.827Z,8.61
2018-03-26T20:15:25.450Z,8.39
2018-03-26T20:17:53.255Z,8.63
2018-03-26T20:20:20.843Z,8.62
2018-03-26T20:22:48.468Z,8.72
2018-03-26T20:25:16.115Z,8.74
2018-03-26T20:30:37.719Z,8.70
2018-03-26T20:33:05.375Z,8.65
2018-03-26T20:35:32.995Z,8.71
2018-03-26T20:38:02.301Z,8.65
2018-03-26T20:40:29.894Z,8.75
2018-03-26T20:42:57.499Z,8.61
2018-03-26T20:45:25.139Z,8.84
2018-03-26T20:47:52.739Z,8.76
2018-03-26T20:50:20.351Z,8.64
2018-03-26T20:52:47.975Z,8.72
2018-03-26T20:55:15.563Z,8.77
2018-03-26T20:57:43.208Z,8.77
2018-03-26T21:00:10.816Z,8.89
2018-03-26T21:02:38.411Z,8.81
2018-03-26T21:05:06.043Z,8.66
2018-03-26T21:07:33.651Z,8.77
2018-03-26T21:10:01.253Z,8.68
2018-03-26T21:12:28.888Z,8.79
2018-03-26T21:14:56.473Z,8.71
2018-03-26T21:17:24.059Z,8.80
2018-03-26T21:19:51.685Z,8.76
2018-03-26T21:22:19.288Z,8.65
2018-03-26T21:24:46.877Z,8.67
2018-03-26T21:27:14.518Z,8.61
2018-03-26T21:29:42.102Z,8.69
2018-03-26T21:32:09.708Z,8.61
2018-03-26T21:34:37.355Z,8.72
2018-03-26T21:37:04.958Z,8.68
2018-03-26T21:39:32.552Z,8.81
2018-03-26T21:42:00.150Z,8.71
2018-03-26T21:44:27.790Z,8.75
2018-03-26T21:46:55.374Z,8.69
2018-03-26T21:49:22.958Z,8.50
2018-03-26T21:51:50.678Z,8.67
2018-03-26T21:54:18.267Z,8.72
2018-03-26T21:56:45.862Z,8.68
2018-03-26T21:59:13.487Z,8.74
2018-03-26T22:01:41.091Z,8.69
2018-03-26T22:04:08.675Z,8.76
2018-03-26T22:06:36.320Z,8.66
2018-03-26T22:09:03.923Z,8.83
2018-03-26T22:11:31.599Z,8.68
2018-03-26T22:13:59.212Z,8.82
2018-03-26T22:16:26.795Z,8.72
2018-03-26T22:18:54.422Z,8.70
2018-03-26T22:21:22.018Z,8.71
2018-03-26T22:23:49.626Z,8.65
2018-03-26T22:26:17.212Z,8.51
2018-03-26T22:28:44.889Z,8.50
2018-03-26T22:31:12.537Z,8.42
2018-03-26T22:33:40.119Z,8.43
2018-03-26T22:36:07.743Z,8.53
